Time,TemperatureF,DewpointF,PressureIn,WindDirection,WindDirectionDegrees,WindSpeedMPH,WindSpeedGustMPH,Humidity,HourlyPrecipIn,Conditions,Clouds,dailyrainin,SoftwareType,DateUTC
2013-10-18 00:01:00,69.6,61.3,30.00,NE,43,5.0,5.0,75,0.00,,,0.00,Wunderground v.1.15,2013-10-18 05:01:00,
2013-10-18 00:07:00,69.6,60.6,30.00,NNE,25,5.0,7.0,73,0.00,,,0.00,Wunderground v.1.15,2013-10-18 05:07:00,
2013-10-18 00:13:00,69.6,60.2,29.99,ENE,60,5.0,9.0,72,0.00,,,0.00,Wunderground v.1.15,2013-10-18 05:13:00,
2013-10-18 00:19:00,69.7,61.0,29.99,NE,46,6.0,10.0,74,0.00,,,0.00,Wunderground v.1.15,2013-10-18 05:19:00,
2013-10-18 00:25:00,69.6,62.1,29.99,ENE,67,6.0,9.0,77,0.00,,,0.00,Wunderground v.1.15,2013-10-18 05:25:00,
2013-10-18 00:31:00,69.4,61.9,29.99,NE,55,6.0,9.0,77,0.00,,,0.00,Wunderground v.1.15,2013-10-18 05:31:00,
2013-10-18 00:37:00,69.2,60.6,29.99,NE,34,6.0,13.0,74,0.00,,,0.00,Wunderground v.1.15,2013-10-18 05:37:00,
2013-10-18 00:43:00,69.2,60.6,29.99,ENE,58,8.0,11.0,74,0.00,,,0.00,Wunderground v.1.15,2013-10-18 05:43:00,
2013-10-18 00:48:00,69.2,61.3,29.99,ENE,58,7.0,12.0,76,0.00,,,0.00,Wunderground v.1.15,2013-10-18 05:48:00,
2013-10-18 00:54:00,69.1,60.5,29.99,ENE,66,7.0,9.0,74,0.00,,,0.00,Wunderground v.1.15,2013-10-18 05:54:00,
2013-10-18 00:59:00,69.0,59.6,29.99,ENE,64,6.0,9.0,72,0.00,,,0.00,Wunderground v.1.15,2013-10-18 05:59:00,
2013-10-18 01:05:00,69.0,58.0,29.99,NE,54,7.0,13.0,68,0.00,,,0.00,Wunderground v.1.15,2013-10-18 06:05:00,
2013-10-18 01:11:00,69.0,58.0,29.99,NE,55,7.0,12.0,68,0.00,,,0.00,Wunderground v.1.15,2013-10-18 06:11:00,
2013-10-18 01:17:00,69.0,58.4,29.99,ENE,71,7.0,12.0,69,0.00,,,0.00,Wunderground v.1.15,2013-10-18 06:17:00,
2013-10-18 01:23:00,69.1,57.7,29.99,ENE,70,6.0,12.0,67,0.00,,,0.00,Wunderground v.1.15,2013-10-18 06:23:00,
2013-10-18 01:29:00,69.2,58.2,29.99,ENE,72,6.0,12.0,68,0.00,,,0.00,Wunderground v.1.15,2013-10-18 06:29:00,
2013-10-18 01:35:00,69.0,58.4,29.99,East,82,6.0,12.0,69,0.00,,,0.00,Wunderground v.1.15,2013-10-18 06:35:00,
2013-10-18 01:41:00,69.0,59.2,30.00,NE,46,6.0,12.0,71,0.00,,,0.00,Wunderground v.1.15,2013-10-18 06:41:00,
2013-10-18 01:46:00,69.0,60.0,30.00,ENE,59,5.0,12.0,73,0.00,,,0.00,Wunderground v.1.15,2013-10-18 06:46:00,
2013-10-18 01:52:00,69.0,60.7,30.00,ENE,64,4.0,12.0,75,0.00,,,0.00,Wunderground v.1.15,2013-10-18 06:52:00,
2013-10-18 01:58:00,69.0,61.1,30.00,East,85,5.0,12.0,76,0.00,,,0.00,Wunderground v.1.15,2013-10-18 06:58:00,
2013-10-18 02:04:00,69.2,61.7,30.00,ENE,60,5.0,12.0,77,0.00,,,0.00,Wunderground v.1.15,2013-10-18 07:04:00,
2013-10-18 02:10:00,69.2,62.0,29.99,ENE,61,5.0,12.0,78,0.00,,,0.00,Wunderground v.1.15,2013-10-18 07:10:00,
2013-10-18 02:16:00,69.2,62.4,29.99,NE,55,4.0,12.0,79,0.00,,,0.00,Wunderground v.1.15,2013-10-18 07:16:00,
2013-10-18 02:22:00,69.1,62.3,29.99,ENE,74,4.0,12.0,79,0.00,,,0.00,Wunderground v.1.15,2013-10-18 07:22:00,
2013-10-18 02:28:00,69.1,62.7,29.99,NE,44,4.0,12.0,80,0.00,,,0.00,Wunderground v.1.15,2013-10-18 07:28:00,
2013-10-18 02:33:00,69.2,63.1,29.99,NE,56,4.0,12.0,81,0.00,,,0.00,Wunderground v.1.15,2013-10-18 07:33:00,
2013-10-18 02:39:00,69.2,63.1,29.99,ENE,75,4.0,12.0,81,0.00,,,0.00,Wunderground v.1.15,2013-10-18 07:39:00,
2013-10-18 02:45:00,69.2,63.1,29.99,ENE,62,3.0,12.0,81,0.00,,,0.00,Wunderground v.1.15,2013-10-18 07:45:00,
2013-10-18 02:51:00,69.2,63.5,29.99,NE,54,4.0,12.0,82,0.00,,,0.00,Wunderground v.1.15,2013-10-18 07:51:00,
2013-10-18 02:57:00,69.2,63.8,29.99,ENE,65,3.0,12.0,83,0.00,,,0.00,Wunderground v.1.15,2013-10-18 07:57:00,
2013-10-18 03:03:00,69.0,64.0,29.99,ENE,70,3.0,12.0,84,0.00,,,0.00,Wunderground v.1.15,2013-10-18 08:03:00,
2013-10-18 03:08:00,69.0,64.3,29.98,NE,37,3.0,12.0,85,0.00,,,0.00,Wunderground v.1.15,2013-10-18 08:08:00,
2013-10-18 03:14:00,69.0,64.6,29.98,NE,38,3.0,12.0,86,0.00,,,0.00,Wunderground v.1.15,2013-10-18 08:14:00,
2013-10-18 03:20:00,69.1,64.7,29.98,NNE,28,4.0,4.0,86,0.00,,,0.00,Wunderground v.1.15,2013-10-18 08:20:00,
2013-10-18 03:26:00,69.0,65.0,29.98,NNE,24,3.0,12.0,87,0.00,,,0.00,Wunderground v.1.15,2013-10-18 08:26:00,
2013-10-18 03:32:00,68.8,64.8,29.98,ENE,67,4.0,12.0,87,0.00,,,0.00,Wunderground v.1.15,2013-10-18 08:32:00,
2013-10-18 03:38:00,68.8,64.8,29.98,NE,47,4.0,12.0,87,0.00,,,0.00,Wunderground v.1.15,2013-10-18 08:38:00,
2013-10-18 03:43:00,68.7,64.7,29.98,NE,46,4.0,12.0,87,0.00,,,0.00,Wunderground v.1.15,2013-10-18 08:43:00,
2013-10-18 03:49:00,68.7,64.3,29.98,ENE,62,4.0,12.0,86,0.00,,,0.00,Wunderground v.1.15,2013-10-18 08:49:00,
2013-10-18 03:55:00,68.8,64.4,29.98,NE,54,4.0,12.0,86,0.00,,,0.00,Wunderground v.1.15,2013-10-18 08:55:00,
2013-10-18 04:01:00,68.8,64.1,29.98,ENE,67,4.0,12.0,85,0.00,,,0.00,Wunderground v.1.15,2013-10-18 09:01:00,
2013-10-18 04:07:00,68.9,64.2,29.98,NE,46,4.0,12.0,85,0.00,,,0.00,Wunderground v.1.15,2013-10-18 09:07:00,
2013-10-18 04:12:00,69.1,64.4,29.98,NNE,23,4.0,12.0,85,0.00,,,0.00,Wunderground v.1.15,2013-10-18 09:12:00,
2013-10-18 04:18:00,69.2,64.2,29.97,ENE,60,4.0,12.0,84,0.00,,,0.00,Wunderground v.1.15,2013-10-18 09:18:00,
2013-10-18 04:24:00,69.3,64.3,29.97,NE,49,4.0,12.0,84,0.00,,,0.00,Wunderground v.1.15,2013-10-18 09:24:00,
2013-10-18 04:30:00,69.4,64.4,29.97,NE,51,4.0,12.0,84,0.00,,,0.00,Wunderground v.1.15,2013-10-18 09:30:00,
2013-10-18 04:36:00,69.4,64.7,29.97,ENE,66,4.0,12.0,85,0.00,,,0.00,Wunderground v.1.15,2013-10-18 09:36:00,
2013-10-18 04:41:00,69.4,64.7,29.97,ENE,70,4.0,12.0,85,0.00,,,0.00,Wunderground v.1.15,2013-10-18 09:41:00,
2013-10-18 04:47:00,69.4,64.4,29.97,NE,46,4.0,12.0,84,0.00,,,0.00,Wunderground v.1.15,2013-10-18 09:47:00,
2013-10-18 04:53:00,69.3,64.3,29.97,NE,53,4.0,12.0,84,0.00,,,0.00,Wunderground v.1.15,2013-10-18 09:53:00,
2013-10-18 04:59:00,69.3,64.3,29.97,NE,37,5.0,12.0,84,0.00,,,0.00,Wunderground v.1.15,2013-10-18 09:59:00,
2013-10-18 05:04:00,69.2,64.2,29.97,ENE,73,5.0,12.0,84,0.00,,,0.00,Wunderground v.1.15,2013-10-18 10:04:00,
2013-10-18 05:10:00,69.2,64.5,29.97,NE,49,5.0,12.0,85,0.00,,,0.00,Wunderground v.1.15,2013-10-18 10:10:00,
2013-10-18 05:16:00,69.3,64.6,29.96,North,7,5.0,12.0,85,0.00,,,0.00,Wunderground v.1.15,2013-10-18 10:16:00,
2013-10-18 05:22:00,69.3,64.6,29.96,ENE,70,6.0,12.0,85,0.00,,,0.00,Wunderground v.1.15,2013-10-18 10:22:00,
2013-10-18 05:28:00,69.3,64.9,29.96,ENE,66,6.0,12.0,86,0.00,,,0.00,Wunderground v.1.15,2013-10-18 10:28:00,
2013-10-18 05:33:00,69.3,64.9,29.96,ENE,59,7.0,12.0,86,0.00,,,0.00,Wunderground v.1.15,2013-10-18 10:33:00,
2013-10-18 05:39:00,69.2,64.8,29.96,ENE,67,6.0,12.0,86,0.00,,,0.00,Wunderground v.1.15,2013-10-18 10:39:00,
2013-10-18 05:45:00,69.1,65.1,29.97,NE,47,6.0,12.0,87,0.00,,,0.00,Wunderground v.1.15,2013-10-18 10:45:00,
2013-10-18 05:51:00,69.0,65.0,29.97,ENE,66,6.0,7.0,87,0.00,,,0.00,Wunderground v.1.15,2013-10-18 10:51:00,
2013-10-18 05:56:00,69.0,65.3,29.97,NNE,30,5.0,12.0,88,0.00,,,0.00,Wunderground v.1.15,2013-10-18 10:56:00,
2013-10-18 06:02:00,69.0,65.3,29.97,NNE,23,6.0,12.0,88,0.00,,,0.00,Wunderground v.1.15,2013-10-18 11:02:00,
2013-10-18 06:08:00,68.9,65.2,29.96,ENE,58,7.0,12.0,88,0.00,,,0.00,Wunderground v.1.15,2013-10-18 11:08:00,
2013-10-18 06:14:00,68.9,65.5,29.97,NE,41,8.0,12.0,89,0.00,,,0.00,Wunderground v.1.15,2013-10-18 11:14:00,
2013-10-18 06:20:00,68.9,65.5,29.97,ENE,64,6.0,12.0,89,0.00,,,0.00,Wunderground v.1.15,2013-10-18 11:20:00,
2013-10-18 06:25:00,69.0,65.6,29.97,NE,37,5.0,12.0,89,0.00,,,0.00,Wunderground v.1.15,2013-10-18 11:25:00,
2013-10-18 06:31:00,69.0,65.6,29.97,NE,41,6.0,12.0,89,0.00,,,0.00,Wunderground v.1.15,2013-10-18 11:31:00,
2013-10-18 06:37:00,68.9,65.5,29.97,NNE,22,6.0,12.0,89,0.00,,,0.00,Wunderground v.1.15,2013-10-18 11:37:00,
2013-10-18 06:43:00,68.8,65.4,29.97,ENE,65,7.0,12.0,89,0.00,,,0.00,Wunderground v.1.15,2013-10-18 11:43:00,
2013-10-18 06:48:00,68.8,65.7,29.98,ENE,60,8.0,12.0,90,0.00,,,0.00,Wunderground v.1.15,2013-10-18 11:48:00,
2013-10-18 06:54:00,68.8,65.7,29.98,ENE,65,7.0,12.0,90,0.00,,,0.00,Wunderground v.1.15,2013-10-18 11:54:00,
2013-10-18 07:00:00,68.9,65.8,29.98,ENE,68,7.0,12.0,90,0.00,,,0.00,Wunderground v.1.15,2013-10-18 12:00:00,
2013-10-18 07:06:00,69.1,66.0,29.98,ENE,72,7.0,14.0,90,0.00,,,0.00,Wunderground v.1.15,2013-10-18 12:06:00,
2013-10-18 07:11:00,69.2,66.1,29.98,NE,44,7.0,12.0,90,0.00,,,0.00,Wunderground v.1.15,2013-10-18 12:11:00,
2013-10-18 07:17:00,69.0,65.9,29.98,NE,55,6.0,12.0,90,0.00,,,0.00,Wunderground v.1.15,2013-10-18 12:17:00,
2013-10-18 07:23:00,69.0,65.9,29.98,NE,49,7.0,12.0,90,0.00,,,0.00,Wunderground v.1.15,2013-10-18 12:23:00,
2013-10-18 07:29:00,69.0,65.9,29.99,ENE,73,5.0,12.0,90,0.00,,,0.00,Wunderground v.1.15,2013-10-18 12:29:00,
2013-10-18 07:35:00,69.1,66.0,29.99,NE,49,3.0,12.0,90,0.00,,,0.00,Wunderground v.1.15,2013-10-18 12:35:00,
2013-10-18 07:40:00,69.3,66.2,29.99,ENE,60,3.0,12.0,90,0.00,,,0.00,Wunderground v.1.15,2013-10-18 12:40:00,
2013-10-18 07:46:00,70.1,65.4,29.99,East,90,6.0,12.0,85,0.00,,,0.00,Wunderground v.1.15,2013-10-18 12:46:00,
2013-10-18 07:52:00,70.9,65.5,29.99,NE,54,7.0,12.0,83,0.00,,,0.00,Wunderground v.1.15,2013-10-18 12:52:00,
2013-10-18 07:58:00,71.1,65.3,29.99,ENE,74,7.0,12.0,82,0.00,,,0.00,Wunderground v.1.15,2013-10-18 12:58:00,
2013-10-18 08:04:00,71.2,65.1,29.99,ENE,76,9.0,13.0,81,0.00,,,0.00,Wunderground v.1.15,2013-10-18 13:04:00,
2013-10-18 08:09:00,71.4,65.3,29.98,East,94,10.0,13.0,81,0.00,,,0.00,Wunderground v.1.15,2013-10-18 13:09:00,
2013-10-18 08:15:00,71.4,64.9,29.99,East,88,9.0,12.0,80,0.00,,,0.00,Wunderground v.1.15,2013-10-18 13:15:00,
2013-10-18 08:21:00,71.5,65.4,29.99,ENE,77,8.0,12.0,81,0.00,,,0.00,Wunderground v.1.15,2013-10-18 13:21:00,
2013-10-18 08:27:00,71.5,65.0,29.99,ENE,66,8.0,13.0,80,0.00,,,0.00,Wunderground v.1.15,2013-10-18 13:27:00,
2013-10-18 08:32:00,71.5,64.6,29.99,NE,55,10.0,14.0,79,0.00,,,0.00,Wunderground v.1.15,2013-10-18 13:32:00,
2013-10-18 08:38:00,71.5,64.3,29.99,East,96,10.0,14.0,78,0.00,,,0.00,Wunderground v.1.15,2013-10-18 13:38:00,
2013-10-18 08:44:00,71.6,64.4,29.99,ENE,69,10.0,14.0,78,0.00,,,0.00,Wunderground v.1.15,2013-10-18 13:44:00,
2013-10-18 08:50:00,71.6,64.4,29.99,ENE,64,11.0,11.0,78,0.00,,,0.00,Wunderground v.1.15,2013-10-18 13:50:00,
2013-10-18 08:56:00,71.7,64.5,30.00,ENE,72,9.0,13.0,78,0.00,,,0.00,Wunderground v.1.15,2013-10-18 13:56:00,
2013-10-18 09:02:00,72.0,64.8,30.00,ENE,77,8.0,14.0,78,0.00,,,0.00,Wunderground v.1.15,2013-10-18 14:02:00,
2013-10-18 09:07:00,72.0,64.8,30.00,ENE,74,8.0,14.0,78,0.00,,,0.00,Wunderground v.1.15,2013-10-18 14:07:00,
2013-10-18 09:13:00,72.1,64.9,30.00,NE,54,8.0,12.0,78,0.00,,,0.00,Wunderground v.1.15,2013-10-18 14:13:00,
2013-10-18 09:19:00,72.1,64.9,30.00,ENE,65,8.0,12.0,78,0.00,,,0.00,Wunderground v.1.15,2013-10-18 14:19:00,
2013-10-18 09:24:00,72.0,64.8,30.00,ENE,64,8.0,16.0,78,0.00,,,0.00,Wunderground v.1.15,2013-10-18 14:24:00,
2013-10-18 09:30:00,72.0,64.8,30.00,ESE,102,11.0,11.0,78,0.00,,,0.00,Wunderground v.1.15,2013-10-18 14:30:00,
2013-10-18 09:36:00,72.0,64.8,30.00,ENE,72,11.0,12.0,78,0.00,,,0.00,Wunderground v.1.15,2013-10-18 14:36:00,
2013-10-18 09:42:00,72.1,64.1,30.00,ENE,72,10.0,13.0,76,0.00,,,0.00,Wunderground v.1.15,2013-10-18 14:42:00,
2013-10-18 09:48:00,72.2,64.2,30.00,NE,56,11.0,17.0,76,0.00,,,0.00,Wunderground v.1.15,2013-10-18 14:48:00,
2013-10-18 09:53:00,72.2,64.2,30.00,East,84,11.0,16.0,76,0.00,,,0.00,Wunderground v.1.15,2013-10-18 14:53:00,
2013-10-18 09:59:00,72.2,64.2,30.00,ENE,64,11.0,16.0,76,0.00,,,0.00,Wunderground v.1.15,2013-10-18 14:59:00,
2013-10-18 10:05:00,72.3,63.9,30.00,East,82,11.0,17.0,75,0.00,,,0.00,Wunderground v.1.15,2013-10-18 15:05:00,
2013-10-18 10:11:00,72.5,64.1,30.00,ENE,71,11.0,12.0,75,0.00,,,0.00,Wunderground v.1.15,2013-10-18 15:11:00,
2013-10-18 10:17:00,72.5,64.1,30.00,ENE,69,11.0,16.0,75,0.00,,,0.00,Wunderground v.1.15,2013-10-18 15:17:00,
2013-10-18 10:23:00,72.3,63.5,30.00,East,80,11.0,15.0,74,0.00,,,0.00,Wunderground v.1.15,2013-10-18 15:23:00,
2013-10-18 10:28:00,72.2,63.4,30.00,ENE,77,11.0,15.0,74,0.00,,,0.00,Wunderground v.1.15,2013-10-18 15:28:00,
2013-10-18 10:34:00,72.2,63.8,30.00,East,80,10.0,12.0,75,0.00,,,0.00,Wunderground v.1.15,2013-10-18 15:34:00,
2013-10-18 10:39:00,72.2,63.4,30.01,ENE,68,11.0,14.0,74,0.00,,,0.00,Wunderground v.1.15,2013-10-18 15:39:00,
2013-10-18 10:45:00,72.3,63.2,30.00,East,79,11.0,14.0,73,0.00,,,0.00,Wunderground v.1.15,2013-10-18 15:45:00,
2013-10-18 10:51:00,72.4,63.3,30.00,East,97,11.0,12.0,73,0.00,,,0.00,Wunderground v.1.15,2013-10-18 15:51:00,
2013-10-18 10:57:00,72.4,62.9,30.00,ENE,72,11.0,16.0,72,0.00,,,0.00,Wunderground v.1.15,2013-10-18 15:57:00,
2013-10-18 11:02:00,72.5,63.0,30.01,ENE,70,11.0,13.0,72,0.00,,,0.00,Wunderground v.1.15,2013-10-18 16:02:00,
2013-10-18 11:08:00,72.7,62.3,30.00,East,93,11.0,13.0,70,0.00,,,0.00,Wunderground v.1.15,2013-10-18 16:08:00,
2013-10-18 11:14:00,72.6,63.1,30.00,ENE,70,11.0,12.0,72,0.00,,,0.00,Wunderground v.1.15,2013-10-18 16:14:00,
2013-10-18 11:20:00,72.8,62.8,30.00,ESE,103,11.0,12.0,71,0.00,,,0.00,Wunderground v.1.15,2013-10-18 16:20:00,
2013-10-18 11:25:00,73.1,62.7,30.00,NE,53,11.0,12.0,70,0.00,,,0.00,Wunderground v.1.15,2013-10-18 16:25:00,
2013-10-18 11:31:00,73.0,62.6,29.99,ENE,64,11.0,14.0,70,0.00,,,0.00,Wunderground v.1.15,2013-10-18 16:31:00,
2013-10-18 11:37:00,73.1,63.1,30.00,ENE,74,11.0,14.0,71,0.00,,,0.00,Wunderground v.1.15,2013-10-18 16:37:00,
2013-10-18 11:43:00,72.9,62.5,30.00,NE,51,11.0,20.0,70,0.00,,,0.00,Wunderground v.1.15,2013-10-18 16:43:00,
2013-10-18 11:49:00,73.0,62.2,29.99,ENE,76,12.0,20.0,69,0.00,,,0.00,Wunderground v.1.15,2013-10-18 16:49:00,
2013-10-18 11:54:00,73.0,62.2,29.99,ENE,74,11.0,14.0,69,0.00,,,0.00,Wunderground v.1.15,2013-10-18 16:54:00,
2013-10-18 12:00:00,72.9,62.5,29.99,ENE,71,12.0,12.0,70,0.00,,,0.00,Wunderground v.1.15,2013-10-18 17:00:00,
2013-10-18 12:06:00,72.9,63.3,29.98,East,91,10.0,12.0,72,0.00,,,0.00,Wunderground v.1.15,2013-10-18 17:06:00,
2013-10-18 12:11:00,72.8,62.8,29.98,ENE,77,11.0,12.0,71,0.00,,,0.00,Wunderground v.1.15,2013-10-18 17:11:00,
2013-10-18 12:17:00,72.9,62.5,29.97,ENE,70,12.0,14.0,70,0.00,,,0.00,Wunderground v.1.15,2013-10-18 17:17:00,
2013-10-18 12:23:00,72.7,61.9,29.97,ENE,70,13.0,19.0,69,0.00,,,0.00,Wunderground v.1.15,2013-10-18 17:23:00,
2013-10-18 12:29:00,72.7,62.3,29.97,ENE,68,12.0,19.0,70,0.00,,,0.00,Wunderground v.1.15,2013-10-18 17:29:00,
2013-10-18 12:35:00,72.5,62.2,29.96,East,91,13.0,17.0,70,0.00,,,0.00,Wunderground v.1.15,2013-10-18 17:35:00,
2013-10-18 12:37:00,72.5,62.2,29.96,ENE,65,13.0,17.0,70,0.00,,,0.00,Wunderground v.1.15,2013-10-18 17:37:00,
2013-10-18 12:43:00,72.6,61.8,29.96,ENE,71,13.0,18.0,69,0.00,,,0.00,Wunderground v.1.15,2013-10-18 17:43:00,
2013-10-18 12:48:00,72.6,61.8,29.96,ENE,71,13.0,18.0,69,0.00,,,0.00,Wunderground v.1.15,2013-10-18 17:48:00,
2013-10-18 12:54:00,72.7,62.3,29.96,ENE,67,12.0,14.0,70,0.00,,,0.00,Wunderground v.1.15,2013-10-18 17:54:00,
2013-10-18 13:00:00,72.7,63.1,29.95,ESE,106,12.0,12.0,72,0.00,,,0.00,Wunderground v.1.15,2013-10-18 18:00:00,
2013-10-18 13:06:00,72.5,62.6,29.95,ENE,70,12.0,18.0,71,0.00,,,0.00,Wunderground v.1.15,2013-10-18 18:06:00,
2013-10-18 13:11:00,72.5,63.0,29.95,ENE,62,12.0,14.0,72,0.00,,,0.00,Wunderground v.1.15,2013-10-18 18:11:00,
2013-10-18 13:17:00,72.4,62.9,29.95,ENE,72,11.0,14.0,72,0.00,,,0.00,Wunderground v.1.15,2013-10-18 18:17:00,
2013-10-18 13:23:00,72.3,62.4,29.95,ENE,75,11.0,19.0,71,0.00,,,0.00,Wunderground v.1.15,2013-10-18 18:23:00,
2013-10-18 13:29:00,72.0,63.3,29.94,ENE,68,11.0,19.0,74,0.00,,,0.00,Wunderground v.1.15,2013-10-18 18:29:00,
2013-10-18 13:35:00,71.6,62.9,29.95,ENE,68,10.0,17.0,74,0.00,,,0.00,Wunderground v.1.15,2013-10-18 18:35:00,
2013-10-18 13:40:00,71.4,63.1,29.95,ENE,65,10.0,10.0,75,0.00,,,0.00,Wunderground v.1.15,2013-10-18 18:40:00,
2013-10-18 13:45:00,71.3,63.3,29.94,ENE,75,9.0,12.0,76,0.00,,,0.01,Wunderground v.1.15,2013-10-18 18:45:00,
2013-10-18 13:51:00,71.2,63.2,29.94,ENE,64,8.0,15.0,76,0.00,,,0.01,Wunderground v.1.15,2013-10-18 18:51:00,
2013-10-18 13:57:00,71.2,62.9,29.93,NE,54,10.0,15.0,75,0.00,,,0.01,Wunderground v.1.15,2013-10-18 18:57:00,
2013-10-18 14:02:00,71.4,63.4,29.93,ENE,67,9.0,12.0,76,0.00,,,0.01,Wunderground v.1.15,2013-10-18 19:02:00,
2013-10-18 14:08:00,71.6,63.3,29.93,ENE,65,8.0,12.0,75,0.00,,,0.01,Wunderground v.1.15,2013-10-18 19:08:00,
2013-10-18 14:14:00,71.7,63.4,29.92,ENE,70,9.0,12.0,75,0.00,,,0.01,Wunderground v.1.15,2013-10-18 19:14:00,
2013-10-18 14:20:00,71.9,62.4,29.93,East,85,10.0,13.0,72,0.00,,,0.01,Wunderground v.1.15,2013-10-18 19:20:00,
2013-10-18 14:26:00,72.2,63.1,29.93,ENE,76,10.0,13.0,73,0.00,,,0.01,Wunderground v.1.15,2013-10-18 19:26:00,
2013-10-18 14:31:00,72.3,63.2,29.93,ENE,75,10.0,12.0,73,0.00,,,0.01,Wunderground v.1.15,2013-10-18 19:31:00,
2013-10-18 14:37:00,72.4,63.3,29.93,ENE,64,9.0,12.0,73,0.00,,,0.01,Wunderground v.1.15,2013-10-18 19:37:00,
2013-10-18 14:43:00,72.6,63.4,29.93,East,83,8.0,12.0,73,0.00,,,0.01,Wunderground v.1.15,2013-10-18 19:43:00,
2013-10-18 14:49:00,72.7,63.1,29.92,East,86,9.0,17.0,72,0.00,,,0.01,Wunderground v.1.15,2013-10-18 19:49:00,
2013-10-18 14:55:00,72.7,62.3,29.93,East,85,11.0,12.0,70,0.00,,,0.01,Wunderground v.1.15,2013-10-18 19:55:00,
2013-10-18 15:00:00,72.8,62.8,29.93,East,97,12.0,15.0,71,0.00,,,0.01,Wunderground v.1.15,2013-10-18 20:00:00,
2013-10-18 15:06:00,72.9,63.7,29.92,ENE,76,12.0,16.0,73,0.00,,,0.01,Wunderground v.1.15,2013-10-18 20:06:00,
2013-10-18 15:12:00,72.9,63.7,29.92,East,94,12.0,12.0,73,0.00,,,0.01,Wunderground v.1.15,2013-10-18 20:12:00,
2013-10-18 15:18:00,72.9,64.1,29.92,ENE,76,12.0,16.0,74,0.00,,,0.01,Wunderground v.1.15,2013-10-18 20:18:00,
2013-10-18 15:24:00,72.9,64.1,29.91,East,86,12.0,19.0,74,0.00,,,0.01,Wunderground v.1.15,2013-10-18 20:24:00,
2013-10-18 15:30:00,72.9,64.1,29.91,ENE,65,13.0,13.0,74,0.00,,,0.01,Wunderground v.1.15,2013-10-18 20:30:00,
2013-10-18 15:35:00,72.9,62.5,29.90,ENE,65,12.0,13.0,70,0.00,,,0.01,Wunderground v.1.15,2013-10-18 20:35:00,
2013-10-18 15:41:00,73.1,63.5,29.90,ENE,71,12.0,12.0,72,0.00,,,0.01,Wunderground v.1.15,2013-10-18 20:41:00,
2013-10-18 15:47:00,73.0,64.2,29.90,East,84,11.0,16.0,74,0.00,,,0.01,Wunderground v.1.15,2013-10-18 20:47:00,
2013-10-18 15:53:00,73.0,63.8,29.89,ENE,60,12.0,16.0,73,0.00,,,0.01,Wunderground v.1.15,2013-10-18 20:53:00,
2013-10-18 15:59:00,73.5,64.7,29.89,ENE,77,11.0,16.0,74,0.00,,,0.01,Wunderground v.1.15,2013-10-18 20:59:00,
2013-10-18 16:05:00,73.6,64.8,29.90,ESE,108,10.0,13.0,74,0.00,,,0.01,Wunderground v.1.15,2013-10-18 21:05:00,
2013-10-18 16:10:00,73.7,64.9,29.90,ENE,71,11.0,20.0,74,0.00,,,0.01,Wunderground v.1.15,2013-10-18 21:10:00,
2013-10-18 16:16:00,73.8,65.4,29.89,ENE,77,12.0,20.0,75,0.00,,,0.01,Wunderground v.1.15,2013-10-18 21:16:00,
2013-10-18 16:22:00,73.9,65.1,29.89,ENE,76,11.0,19.0,74,0.00,,,0.01,Wunderground v.1.15,2013-10-18 21:22:00,
2013-10-18 16:28:00,73.8,65.4,29.89,ENE,77,12.0,19.0,75,0.00,,,0.01,Wunderground v.1.15,2013-10-18 21:28:00,
2013-10-18 16:34:00,73.6,64.0,29.89,East,85,12.0,14.0,72,0.00,,,0.01,Wunderground v.1.15,2013-10-18 21:34:00,
2013-10-18 16:40:00,73.6,65.2,29.90,ENE,76,12.0,15.0,75,0.00,,,0.01,Wunderground v.1.15,2013-10-18 21:40:00,
2013-10-18 16:45:00,73.4,65.4,29.90,East,80,13.0,17.0,76,0.00,,,0.01,Wunderground v.1.15,2013-10-18 21:45:00,
2013-10-18 16:51:00,73.3,64.5,29.89,ENE,66,13.0,16.0,74,0.00,,,0.01,Wunderground v.1.15,2013-10-18 21:51:00,
2013-10-18 16:57:00,73.3,64.5,29.89,East,82,14.0,16.0,74,0.00,,,0.01,Wunderground v.1.15,2013-10-18 21:57:00,
2013-10-18 17:03:00,73.4,64.6,29.89,East,91,12.0,13.0,74,0.00,,,0.01,Wunderground v.1.15,2013-10-18 22:03:00,
2013-10-18 17:09:00,73.4,64.6,29.88,East,82,11.0,13.0,74,0.00,,,0.01,Wunderground v.1.15,2013-10-18 22:09:00,
2013-10-18 17:15:00,73.4,64.2,29.87,ENE,57,10.0,12.0,73,0.00,,,0.01,Wunderground v.1.15,2013-10-18 22:15:00,
2013-10-18 17:21:00,73.4,64.6,29.87,East,84,10.0,12.0,74,0.00,,,0.01,Wunderground v.1.15,2013-10-18 22:21:00,
2013-10-18 17:26:00,73.5,65.1,29.87,ENE,64,10.0,12.0,75,0.00,,,0.01,Wunderground v.1.15,2013-10-18 22:26:00,
2013-10-18 17:32:00,73.3,65.3,29.88,ENE,74,9.0,12.0,76,0.00,,,0.01,Wunderground v.1.15,2013-10-18 22:32:00,
2013-10-18 17:38:00,73.2,65.2,29.88,ENE,58,10.0,14.0,76,0.00,,,0.01,Wunderground v.1.15,2013-10-18 22:38:00,
2013-10-18 17:44:00,73.1,65.1,29.89,ENE,60,10.0,16.0,76,0.00,,,0.01,Wunderground v.1.15,2013-10-18 22:44:00,
2013-10-18 17:50:00,73.1,65.8,29.89,ENE,65,10.0,10.0,78,0.00,,,0.01,Wunderground v.1.15,2013-10-18 22:50:00,
2013-10-18 17:56:00,72.8,65.5,29.89,ENE,65,9.0,12.0,78,0.00,,,0.01,Wunderground v.1.15,2013-10-18 22:56:00,
2013-10-18 18:02:00,72.5,65.6,29.90,East,79,9.0,16.0,79,0.00,,,0.01,Wunderground v.1.15,2013-10-18 23:02:00,
2013-10-18 18:08:00,72.2,65.3,29.91,NE,53,10.0,16.0,79,0.00,,,0.01,Wunderground v.1.15,2013-10-18 23:08:00,
2013-10-18 18:14:00,72.2,65.3,29.91,ENE,64,9.0,13.0,79,0.00,,,0.01,Wunderground v.1.15,2013-10-18 23:14:00,
2013-10-18 18:19:00,72.2,65.7,29.91,East,96,9.0,14.0,80,0.00,,,0.01,Wunderground v.1.15,2013-10-18 23:19:00,
2013-10-18 20:14:00,72.2,67.4,29.91,ENE,58,8.0,8.0,85,0.00,,,0.01,Wunderground v.1.15,2013-10-19 01:14:00,
2013-10-18 20:20:00,72.1,67.3,29.91,ENE,70,9.0,12.0,85,0.00,,,0.01,Wunderground v.1.15,2013-10-19 01:20:00,
2013-10-18 20:25:00,72.1,67.3,29.91,ENE,76,9.0,12.0,85,0.00,,,0.01,Wunderground v.1.15,2013-10-19 01:25:00,
2013-10-18 20:30:00,72.2,67.4,29.91,ENE,63,8.0,13.0,85,0.00,,,0.01,Wunderground v.1.15,2013-10-19 01:30:00,
2013-10-18 20:36:00,72.3,67.5,29.91,ENE,78,7.0,12.0,85,0.00,,,0.01,Wunderground v.1.15,2013-10-19 01:36:00,
2013-10-18 20:41:00,72.4,67.6,29.91,East,80,7.0,12.0,85,0.00,,,0.01,Wunderground v.1.15,2013-10-19 01:41:00,
2013-10-18 20:46:00,72.3,67.9,29.91,ENE,75,7.0,12.0,86,0.00,,,0.01,Wunderground v.1.15,2013-10-19 01:46:00,
2013-10-18 20:51:00,72.2,67.8,29.91,ENE,68,7.0,12.0,86,0.00,,,0.01,Wunderground v.1.15,2013-10-19 01:51:00,
2013-10-18 20:56:00,72.1,67.7,29.91,ENE,70,7.0,12.0,86,0.00,,,0.01,Wunderground v.1.15,2013-10-19 01:56:00,
2013-10-18 21:01:00,72.2,68.1,29.91,East,81,7.0,13.0,87,0.00,,,0.01,Wunderground v.1.15,2013-10-19 02:01:00,
2013-10-18 21:07:00,72.4,68.3,29.90,ENE,75,8.0,13.0,87,0.00,,,0.01,Wunderground v.1.15,2013-10-19 02:07:00,
2013-10-18 21:12:00,72.4,68.3,29.91,NE,53,8.0,12.0,87,0.00,,,0.01,Wunderground v.1.15,2013-10-19 02:12:00,
2013-10-18 21:17:00,72.5,68.7,29.91,ENE,69,8.0,12.0,88,0.00,,,0.01,Wunderground v.1.15,2013-10-19 02:17:00,
2013-10-18 21:22:00,72.6,68.8,29.91,ENE,69,9.0,12.0,88,0.00,,,0.01,Wunderground v.1.15,2013-10-19 02:22:00,
2013-10-18 21:27:00,72.6,68.8,29.91,East,82,9.0,12.0,88,0.00,,,0.01,Wunderground v.1.15,2013-10-19 02:27:00,
2013-10-18 21:32:00,72.7,68.9,29.91,ENE,66,8.0,12.0,88,0.00,,,0.01,Wunderground v.1.15,2013-10-19 02:32:00,
2013-10-18 21:37:00,72.9,69.1,29.91,ENE,68,8.0,12.0,88,0.00,,,0.01,Wunderground v.1.15,2013-10-19 02:37:00,
2013-10-18 21:42:00,73.0,69.2,29.91,East,79,8.0,12.0,88,0.00,,,0.01,Wunderground v.1.15,2013-10-19 02:42:00,
2013-10-18 21:48:00,73.0,69.6,29.91,East,80,8.0,12.0,89,0.00,,,0.01,Wunderground v.1.15,2013-10-19 02:48:00,
2013-10-18 21:53:00,72.9,69.5,29.91,ENE,65,8.0,12.0,89,0.00,,,0.01,Wunderground v.1.15,2013-10-19 02:53:00,
2013-10-18 21:58:00,72.9,69.5,29.91,East,84,8.0,12.0,89,0.00,,,0.01,Wunderground v.1.15,2013-10-19 02:58:00,
2013-10-18 22:03:00,73.0,69.9,29.91,East,80,7.0,12.0,90,0.00,,,0.01,Wunderground v.1.15,2013-10-19 03:03:00,
2013-10-18 22:08:00,73.1,70.0,29.91,ENE,67,6.0,12.0,90,0.00,,,0.01,Wunderground v.1.15,2013-10-19 03:08:00,
2013-10-18 22:13:00,73.2,70.1,29.91,ENE,72,7.0,12.0,90,0.00,,,0.01,Wunderground v.1.15,2013-10-19 03:13:00,
2013-10-18 22:18:00,73.3,70.2,29.91,East,101,7.0,12.0,90,0.00,,,0.01,Wunderground v.1.15,2013-10-19 03:18:00,
2013-10-18 22:24:00,73.4,70.3,29.91,ENE,74,7.0,12.0,90,0.00,,,0.01,Wunderground v.1.15,2013-10-19 03:24:00,
2013-10-18 22:29:00,73.4,70.3,29.92,ENE,60,7.0,7.0,90,0.00,,,0.01,Wunderground v.1.15,2013-10-19 03:29:00,
2013-10-18 22:34:00,73.4,70.0,29.91,East,99,6.0,12.0,89,0.00,,,0.01,Wunderground v.1.15,2013-10-19 03:34:00,
2013-10-18 22:39:00,73.4,70.3,29.92,ENE,73,6.0,12.0,90,0.00,,,0.01,Wunderground v.1.15,2013-10-19 03:39:00,
2013-10-18 22:44:00,73.4,70.3,29.92,NE,55,6.0,12.0,90,0.00,,,0.01,Wunderground v.1.15,2013-10-19 03:44:00,
2013-10-18 22:50:00,73.5,70.4,29.92,ENE,75,7.0,12.0,90,0.00,,,0.01,Wunderground v.1.15,2013-10-19 03:50:00,
2013-10-18 22:55:00,73.6,70.5,29.92,ENE,66,6.0,12.0,90,0.00,,,0.01,Wunderground v.1.15,2013-10-19 03:55:00,
2013-10-18 23:00:00,73.6,70.5,29.92,East,81,5.0,12.0,90,0.00,,,0.01,Wunderground v.1.15,2013-10-19 04:00:00,
2013-10-18 23:01:00,73.6,70.5,29.92,East,79,5.0,12.0,90,0.00,,,0.01,Wunderground v.1.15,2013-10-19 04:01:00,
2013-10-18 23:02:00,73.6,70.5,29.92,NE,46,5.0,12.0,90,0.00,,,0.01,Wunderground v.1.15,2013-10-19 04:02:00,
2013-10-18 23:03:00,73.7,70.6,29.92,East,84,5.0,12.0,90,0.00,,,0.01,Wunderground v.1.15,2013-10-19 04:03:00,
2013-10-18 23:05:00,73.7,70.6,29.92,ENE,74,4.0,12.0,90,0.00,,,0.01,Wunderground v.1.15,2013-10-19 04:05:00,
2013-10-18 23:06:00,73.7,70.6,29.91,NE,41,4.0,12.0,90,0.00,,,0.01,Wunderground v.1.15,2013-10-19 04:06:00,
2013-10-18 23:07:00,73.7,70.6,29.91,ENE,64,4.0,12.0,90,0.00,,,0.01,Wunderground v.1.15,2013-10-19 04:07:00,
2013-10-18 23:12:00,73.8,70.7,29.91,ENE,60,5.0,12.0,90,0.00,,,0.01,Wunderground v.1.15,2013-10-19 04:12:00,
2013-10-18 23:17:00,73.9,70.8,29.91,ENE,69,5.0,12.0,90,0.00,,,0.01,Wunderground v.1.15,2013-10-19 04:17:00,
2013-10-18 23:22:00,74.0,70.9,29.92,NNE,32,5.0,12.0,90,0.00,,,0.01,Wunderground v.1.15,2013-10-19 04:22:00,
2013-10-18 23:27:00,72.5,67.4,29.92,WNW,302,4.0,12.0,84,0.00,,,0.01,Wunderground v.1.15,2013-10-19 04:27:00,
2013-10-18 23:32:00,70.5,66.1,29.92,NW,319,6.0,12.0,86,0.00,,,0.01,Wunderground v.1.15,2013-10-19 04:32:00,
2013-10-18 23:38:00,69.9,66.2,29.93,WNW,300,7.0,12.0,88,0.00,,,0.01,Wunderground v.1.15,2013-10-19 04:38:00,
2013-10-18 23:43:00,69.5,65.1,29.93,NNE,20,7.0,12.0,86,0.00,,,0.01,Wunderground v.1.15,2013-10-19 04:43:00,
2013-10-18 23:48:00,69.3,65.3,29.93,NW,319,8.0,13.0,87,0.00,,,0.01,Wunderground v.1.15,2013-10-19 04:48:00,
2013-10-18 23:53:00,69.2,65.2,29.94,North,352,8.0,14.0,87,0.00,,,0.01,Wunderground v.1.15,2013-10-19 04:53:00,
2013-10-18 23:58:00,68.6,64.9,29.94,NNW,340,9.0,17.0,88,0.00,,,0.01,Wunderground v.1.15,2013-10-19 04:58:00,